Data for 06/04/2017

Time Sea-Level Adjusted Pressure Absolute Pressure Temperature Relative Humidity Dew Point   
(mb) (inHg) (mb) (inHg) (C) (F) (%) (C) (F)
00:05 1018 30.06 847 25.01 16.9 62.5 48 6.1 42.9
00:10 1018 30.06 847 25.01 17 62.6 48 6.1 43
00:15 1018 30.06 847 25.01 17 62.6 49 6.3 43.4
00:20 1018 30.06 847 25.01 16.9 62.4 49 6.2 43.1
00:25 1018 30.06 847 25.01 16.9 62.3 50 6.3 43.4
00:30 1018 30.06 847 25.01 16.6 61.9 50 6.2 43.2
00:35 1018 30.06 847 25.01 16.4 61.6 48 5.6 42.1
00:40 1018 30.06 847 25.01 16.4 61.6 48 5.5 41.9
00:45 1018 30.06 847 25.01 16.5 61.7 48 5.7 42.2
00:50 1018 30.06 847 25.01 16.6 61.9 47 5.4 41.7
00:55 1018 30.06 847 25.01 16.8 62.2 46 5.3 41.6
01:00 1018 30.06 847 25.01 16.8 62.2 47 5.5 41.9
01:05 1018 30.06 847 25.01 16.6 61.9 48 5.6 42.1
01:10 1018 30.06 847 25.01 16.4 61.6 49 5.7 42.2
01:15 1018 30.06 847 25.01 16.2 61.2 50 5.8 42.5
01:20 1018 30.06 847 25.01 16.3 61.3 51 6.3 43.3
01:25 1018 30.06 847 25.01 16.2 61.2 48 5.3 41.5
01:30 1018 30.06 847 25.01 16.3 61.3 46 4.7 40.5
01:35 1018 30.06 847 25.01 16.3 61.4 46 4.7 40.5
01:40 1018 30.06 847 25.01 16.2 61.2 45 4.4 40
01:45 1018 30.06 847 25.01 16.2 61.1 44 4 39.2
01:50 1018 30.06 847 25.01 15.9 60.7 44 3.8 38.9
01:55 1018 30.06 847 25.01 15.7 60.2 44 3.5 38.4
02:00 1018 30.06 847 25.01 15.8 60.4 44 3.5 38.4
02:05 1018 30.06 847 25.01 15.9 60.6 40 2.5 36.6
02:10 1018 30.06 847 25.01 16.2 61.1 40 2.6 36.6
02:15 1018 30.06 847 25.01 15.9 60.5 41 2.8 37
02:20 1018 30.06 847 25.01 15.6 60.1 42 2.9 37.2
02:25 1018 30.06 847 25.01 15.5 59.9 44 3.3 38
02:30 1018 30.06 847 25.01 15.6 60.1 43 3.1 37.7
02:35 1018 30.06 847 25.01 15.5 59.9 43 3.2 37.8
02:40 1018 30.06 847 25.01 15.4 59.7 41 2.2 36
02:45 1018 30.06 847 25.01 15.6 60.1 39 1.7 35.1
02:50 1018 30.06 847 25.01 15.6 60 37 1.2 34.1
02:55 1017 30.03 847 25.01 16 60.7 38 1.8 35.3
03:00 1017 30.03 847 25.01 15.8 60.5 43 3.2 37.8
03:05 1017 30.03 847 25.01 15.6 60.1 44 3.4 38.1
03:10 1017 30.03 846 24.98 15.4 59.8 45 3.7 38.6
03:15 1017 30.03 846 24.98 15.2 59.3 46 3.6 38.4
03:20 1017 30.03 846 24.98 15.1 59.2 46 3.6 38.6
03:25 1017 30.03 846 24.98 15.2 59.3 46 3.6 38.5
03:30 1017 30.03 846 24.98 14.9 58.7 45 3.1 37.7
03:35 1017 30.03 846 24.98 14.9 58.7 45 3 37.4
03:40 1017 30.03 846 24.98 15 59 44 2.9 37.3
03:45 1017 30.03 846 24.98 15.1 59.2 43 2.8 37
03:50 1017 30.03 846 24.98 15.2 59.4 42 2.4 36.4
03:55 1017 30.03 846 24.98 15.1 59.2 43 2.8 37.1
04:00 1017 30.03 846 24.98 14.5 58.2 45 2.7 36.9
04:05 1017 30.03 846 24.98 14.7 58.4 42 2 35.7
04:10 1017 30.03 846 24.98 15.4 59.7 41 2.5 36.4
04:15 1017 30.03 846 24.98 15.6 60 41 2.6 36.7
04:20 1017 30.03 846 24.98 15.7 60.2 41 2.4 36.3
04:25 1017 30.03 846 24.98 15.7 60.2 40 2.2 36
04:30 1017 30.03 846 24.98 15.7 60.2 40 2.4 36.2
04:35 1017 30.03 846 24.98 15.3 59.6 42 2.6 36.6
04:40 1017 30.03 846 24.98 15.3 59.5 42 2.4 36.3
04:45 1017 30.03 846 24.98 15.5 59.9 41 2.3 36.1
04:50 1017 30.03 846 24.98 15.5 59.9 42 2.7 36.9
04:55 1017 30.03 846 24.98 15.4 59.7 41 2.4 36.4
05:00 1017 30.03 846 24.98 15.7 60.2 41 2.4 36.4
05:05 1017 30.03 846 24.98 15.8 60.5 39 2.2 35.9
05:10 1017 30.03 846 24.98 16 60.8 40 2.6 36.6
05:15 1017 30.03 846 24.98 16.1 60.9 38 1.9 35.4
05:20 1017 30.03 846 24.98 16.4 61.5 40 2.7 36.8
05:25 1017 30.03 846 24.98 16.1 61 40 2.7 36.8
05:30 1017 30.03 846 24.98 16 60.7 40 2.3 36.1
05:35 1017 30.03 847 25.01 16 60.7 40 2.5 36.4
05:40 1017 30.03 847 25.01 16 60.8 39 2.3 36.1
05:45 1017 30.03 847 25.01 16 60.9 40 2.6 36.6
05:50 1017 30.03 847 25.01 16 60.8 40 2.5 36.4
05:55 1017 30.03 847 25.01 15.9 60.7 40 2.4 36.4
06:00 1017 30.03 847 25.01 15.9 60.5 40 2.5 36.6
06:05 1018 30.06 847 25.01 15.7 60.3 40 2.3 36.2
06:10 1018 30.06 847 25.01 15.7 60.3 41 2.6 36.7
06:15 1018 30.06 847 25.01 15.4 59.7 43 2.9 37.3
06:20 1018 30.06 847 25.01 15.1 59.1 44 3 37.3
06:25 1018 30.06 847 25.01 14.9 58.8 45 3.1 37.5
06:30 1018 30.06 847 25.01 14.8 58.7 45 3.1 37.6
06:35 1018 30.06 847 25.01 14.9 58.8 45 3.1 37.5
06:40 1018 30.06 847 25.01 14.8 58.7 44 2.8 37
06:45 1018 30.06 847 25.01 15.1 59.2 43 2.8 37
06:50 1018 30.06 847 25.01 15.4 59.6 43 2.9 37.2
06:55 1018 30.06 847 25.01 15.5 60 42 2.8 37.1
07:00 1018 30.06 847 25.01 15.8 60.4 42 2.9 37.2
07:05 1018 30.06 847 25.01 16 60.7 41 3 37.4
07:10 1018 30.06 847 25.01 15.8 60.5 42 3.2 37.7
07:15 1018 30.06 847 25.01 16 60.7 42 3.3 38
07:20 1018 30.06 847 25.01 15.8 60.4 43 3.4 38.1
07:25 1018 30.06 847 25.01 15.8 60.4 43 3.3 38
07:30 1018 30.06 847 25.01 16 60.7 42 3.2 37.7
07:35 1018 30.06 847 25.01 16.2 61.2 43 3.8 38.8
07:40 1017 30.03 847 25.01 16.3 61.4 43 3.8 38.9
07:45 1017 30.03 847 25.01 16.6 61.8 42 3.6 38.4
07:50 1017 30.03 847 25.01 17.1 62.9 40 3.5 38.2
07:55 1017 30.03 847 25.01 17.5 63.6 39 3.6 38.5
08:00 1017 30.03 846 24.98 18.1 64.5 37 3.2 37.8
08:05 1017 30.03 846 24.98 18.4 65 36 3.3 37.9
08:10 1017 30.03 846 24.98 18.9 65.9 36 3.6 38.4
08:15 1017 30.03 846 24.98 19.1 66.4 35 3.7 38.6
08:20 1017 30.03 846 24.98 19.5 67.2 34 3.5 38.4
08:25 1017 30.03 846 24.98 19.9 67.8 34 3.6 38.4
08:30 1017 30.03 846 24.98 20.2 68.4 33 3.7 38.6
08:35 1017 30.03 846 24.98 20.3 68.6 33 3.5 38.3
08:40 1017 30.03 846 24.98 20.5 68.9 32 3.4 38.2
08:45 1017 30.03 846 24.98 20.8 69.4 31 3.1 37.6
08:50 1017 30.03 846 24.98 20.9 69.6 31 3.2 37.8
08:55 1017 30.03 846 24.98 20.8 69.4 32 3.6 38.4
09:00 1017 30.03 846 24.98 20.7 69.2 31 3.1 37.5
09:05 1017 30.03 846 24.98 20.7 69.2 31 3.3 37.9
09:10 1017 30.03 846 24.98 21.1 70 30 3.1 37.6
09:15 1017 30.03 846 24.98 21.6 70.9 30 3.7 38.7
09:20 1017 30.03 846 24.98 21.9 71.5 29 3.3 37.9
09:25 1017 30.03 846 24.98 22.2 71.9 29 3.6 38.5
09:30 1017 30.03 846 24.98 22.7 72.8 29 3.8 38.8
09:35 1017 30.03 846 24.98 22.9 73.2 28 3.5 38.3
09:40 1017 30.03 846 24.98 23.3 74 27 3.4 38.2
09:45 1017 30.03 846 24.98 23.4 74.1 26 3.1 37.5
09:50 1017 30.03 846 24.98 23.8 74.8 26 3.3 37.9
09:55 1017 30.03 846 24.98 23.7 74.7 27 3.9 39.1
10:00 1017 30.03 846 24.98 23.8 74.9 26 3.6 38.4
10:05 1017 30.03 846 24.98 24.4 75.8 25 3.3 37.9
10:10 1017 30.03 846 24.98 24.7 76.4 24 3.3 37.9
10:15 1016 30 846 24.98 24.9 76.9 24 3.4 38
10:20 1016 30 846 24.98 25 77 24 3.1 37.6
10:25 1016 30 846 24.98 25.2 77.3 25 4.2 39.6
10:30 1016 30 846 24.98 25.5 77.9 23 3.3 37.9
10:35 1016 30 845 24.95 25.8 78.4 23 3.4 38.2
10:40 1016 30 845 24.95 26 78.8 22 3 37.4
10:45 1016 30 845 24.95 25.9 78.7 23 3.5 38.3
10:50 1016 30 845 24.95 26.3 79.4 22 3.3 38
10:55 1016 30 845 24.95 26.2 79.1 22 3.2 37.8
11:00 1016 30 845 24.95 26.7 80 21 2.9 37.3
11:05 1016 30 845 24.95 26.5 79.7 22 3.1 37.6
11:10 1016 30 845 24.95 26.9 80.4 21 3 37.4
11:15 1016 30 845 24.95 27.2 80.9 20 2.3 36.1
11:20 1016 30 845 24.95 26.9 80.4 22 3.4 38.2
11:25 1016 30 845 24.95 27.1 80.8 21 2.9 37.2
11:30 1016 30 845 24.95 27.3 81.1 21 3 37.4
11:35 1016 30 845 24.95 27.3 81.1 21 3.4 38.1
11:40 1016 30 845 24.95 27.7 81.9 20 3.4 38
11:45 1016 30 845 24.95 27.8 82 20 3.4 38.1
11:50 1016 30 845 24.95 27.9 82.2 19 2.7 36.8
11:55 1016 30 845 24.95 28.3 82.9 17 1.2 34.2
12:00 1016 30 845 24.95 28.3 82.9 18 1.7 35
12:05 1016 30 845 24.95 28.3 82.9 20 3.4 38.2
12:10 1016 30 845 24.95 28.3 82.9 19 2.7 36.8
12:15 1015 29.97 845 24.95 28.6 83.4 19 2.6 36.8
12:20 1015 29.97 845 24.95 29.1 84.4 19 3.1 37.6
12:25 1015 29.97 845 24.95 29.1 84.4 17 2.3 36.1
12:30 1015 29.97 844 24.92 29.3 84.7 18 3 37.4
12:35 1015 29.97 844 24.92 29 84.2 18 2.3 36.1
12:40 1015 29.97 844 24.92 28.4 83.1 19 2.6 36.7
12:45 1015 29.97 844 24.92 28.2 82.8 18 2.2 36
12:50 1015 29.97 844 24.92 28 82.4 19 2.5 36.4
12:55 1015 29.97 844 24.92 28.2 82.8 19 2.7 36.9
13:00 1015 29.97 844 24.92 28.9 84.1 18 2.4 36.3
13:05 1015 29.97 844 24.92 28.7 83.7 19 3.1 37.6
13:10 1015 29.97 844 24.92 29 84.2 18 2.6 36.6
13:15 1015 29.97 844 24.92 29.4 84.8 17 2.1 35.7
13:20 1015 29.97 844 24.92 29.5 85.1 18 2.7 36.9
13:25 1015 29.97 844 24.92 29.5 85 17 2.4 36.4
13:30 1014 29.94 844 24.92 29.5 85 16 1.7 35.1
13:35 1014 29.94 844 24.92 30 85.9 15 1 33.8
13:40 1014 29.94 844 24.92 29.9 85.8 16 2.1 35.8
13:45 1014 29.94 844 24.92 29.2 84.6 17 2.1 35.7
13:50 1014 29.94 843 24.89 29.9 85.8 17 2.7 36.9
13:55 1014 29.94 843 24.89 29.3 84.7 17 2.4 36.4
14:00 1014 29.94 843 24.89 28.2 82.7 19 2.5 36.4
14:05 1014 29.94 843 24.89 27.8 82 18 1.7 35
14:10 1014 29.94 843 24.89 28.3 82.9 17 1.4 34.6
14:15 1014 29.94 843 24.89 28.4 83.1 20 3.9 39.1
14:20 1014 29.94 843 24.89 28.1 82.6 18 2 35.7
14:25 1014 29.94 843 24.89 28.1 82.6 19 2.8 37
14:30 1014 29.94 843 24.89 28.1 82.5 19 2.3 36.1
14:35 1014 29.94 843 24.89 28 82.4 19 2.6 36.8
14:40 1014 29.94 843 24.89 28 82.4 18 2.2 35.9
14:45 1014 29.94 843 24.89 28 82.3 18 1.9 35.5
14:50 1014 29.94 843 24.89 27.9 82.1 19 2.1 35.7
14:55 1014 29.94 843 24.89 27.7 81.9 19 2.4 36.3
15:00 1014 29.94 843 24.89 27.4 81.3 20 2.9 37.2
15:05 1014 29.94 843 24.89 26.7 80.1 19 1.3 34.3
15:10 1014 29.94 843 24.89 25.8 78.4 20 1.4 34.5
15:15 1014 29.94 843 24.89 25.6 78 20 1.5 34.6
15:20 1014 29.94 843 24.89 25.7 78.2 20 1.2 34.2
15:25 1014 29.94 843 24.89 26.1 79 19 1.2 34.1
15:30 1013 29.91 843 24.89 26.6 79.8 18 0.5 32.9
15:35 1013 29.91 843 24.89 26.6 79.9 19 1 33.8
15:40 1013 29.91 843 24.89 27.2 80.9 19 1.5 34.7
15:45 1013 29.91 843 24.89 27.8 82 20 2.9 37.2
15:50 1013 29.91 842 24.86 27.8 82.1 22 4.3 39.7
15:55 1013 29.91 842 24.86 27.4 81.3 21 3.6 38.5
16:00 1013 29.91 842 24.86 27 80.7 23 4.3 39.8
16:05 1013 29.91 842 24.86 26.2 79.1 25 4.6 40.3
16:10 1013 29.91 842 24.86 26.2 79.1 24 4.4 39.9
16:15 1013 29.91 842 24.86 26.5 79.6 23 4.1 39.3
16:20 1013 29.91 842 24.86 26.8 80.2 23 4.4 39.9
16:25 1012 29.88 842 24.86 26.6 80 24 4.5 40.1
16:30 1012 29.88 842 24.86 27 80.6 21 3.2 37.8
16:35 1012 29.88 842 24.86 27.3 81.1 22 4.2 39.6
16:40 1012 29.88 842 24.86 27.3 81.2 21 3.7 38.6
16:45 1012 29.88 841 24.83 27.7 81.8 21 3.4 38.1
16:50 1012 29.88 841 24.83 28 82.3 20 3.1 37.6
16:55 1012 29.88 841 24.83 28.3 83 18 2.1 35.7
17:00 1012 29.88 841 24.83 28.4 83.2 19 3.2 37.7
17:05 1012 29.88 841 24.83 28.3 83 20 3.3 38
17:10 1012 29.88 841 24.83 28.3 83 20 3.7 38.7
17:15 1012 29.88 841 24.83 28.5 83.4 20 3.5 38.3
17:20 1012 29.88 841 24.83 28.5 83.2 21 4 39.2
17:25 1012 29.88 841 24.83 28.5 83.4 22 4.9 40.8
17:30 1012 29.88 841 24.83 28.1 82.5 22 4.6 40.4
17:35 1012 29.88 841 24.83 27.6 81.7 23 4.8 40.6
17:40 1012 29.88 841 24.83 27.5 81.4 23 4.5 40.1
17:45 1012 29.88 841 24.83 27.8 82.1 22 4.5 40.1
17:50 1012 29.88 841 24.83 27.4 81.3 23 4.9 40.8
17:55 1012 29.88 841 24.83 27.2 80.9 23 4.6 40.2
18:00 1012 29.88 841 24.83 27.3 81.1 21 3.4 38.1
18:05 1011 29.85 841 24.83 27.2 81 20 2.9 37.2
18:10 1012 29.88 841 24.83 27.3 81.1 21 3.4 38.2
18:15 1012 29.88 841 24.83 27.3 81.1 23 4.5 40
18:20 1012 29.88 842 24.86 25.7 78.2 27 5.6 42.1
18:25 1012 29.88 842 24.86 24.8 76.6 27 5 41
18:30 1013 29.91 842 24.86 25.1 77.2 28 5.5 41.9
18:35 1013 29.91 842 24.86 25.1 77.2 27 5.2 41.4
18:40 1013 29.91 842 24.86 24.8 76.7 27 5 41
18:45 1013 29.91 842 24.86 24.8 76.6 28 5.4 41.8
18:50 1013 29.91 842 24.86 24.2 75.5 30 5.8 42.4
18:55 1013 29.91 842 24.86 23.8 74.8 31 5.7 42.3
19:00 1013 29.91 842 24.86 23.1 73.5 33 6.3 43.4
19:05 1013 29.91 842 24.86 22.6 72.6 34 6.2 43.2
19:10 1013 29.91 842 24.86 22.6 72.6 34 6.1 43
19:15 1013 29.91 842 24.86 22.7 72.9 34 6.4 43.5
19:20 1013 29.91 842 24.86 22.5 72.5 36 6.8 44.2
19:25 1013 29.91 842 24.86 22.1 71.8 37 7 44.7
19:30 1013 29.91 842 24.86 21.8 71.3 36 6.4 43.5
19:35 1013 29.91 843 24.89 21.8 71.2 36 6.2 43.1
19:40 1013 29.91 842 24.86 22 71.6 35 6 42.7
19:45 1013 29.91 842 24.86 22.2 71.9 34 5.7 42.3
19:50 1013 29.91 842 24.86 22.2 71.9 35 6 42.7
19:55 1013 29.91 842 24.86 22.2 72 36 6.5 43.6
20:00 1013 29.91 842 24.86 21.9 71.3 36 6.4 43.6
20:05 1013 29.91 842 24.86 21.6 70.8 38 6.7 44
20:10 1013 29.91 842 24.86 21.6 70.8 36 6 42.8
20:15 1013 29.91 842 24.86 21.5 70.8 37 6.4 43.5
20:20 1013 29.91 842 24.86 21.4 70.6 37 6.2 43.1
20:25 1013 29.91 842 24.86 21.4 70.6 36 6 42.8
20:30 1013 29.91 842 24.86 21.3 70.4 37 6.2 43.1
20:35 1013 29.91 842 24.86 21.2 70.1 38 6.4 43.5
20:40 1013 29.91 842 24.86 21.1 70 39 6.7 44
20:45 1013 29.91 842 24.86 21 69.8 39 6.6 43.9
20:50 1013 29.91 842 24.86 20.9 69.6 38 6.4 43.5
20:55 1013 29.91 843 24.89 20.8 69.5 39 6.4 43.5
21:00 1013 29.91 843 24.89 20.6 69.1 41 6.9 44.5
21:05 1013 29.91 843 24.89 20.3 68.5 43 7.4 45.3
21:10 1013 29.91 843 24.89 20.1 68.2 44 7.8 46
21:15 1013 29.91 843 24.89 19.9 67.8 44 7.5 45.4
21:20 1013 29.91 843 24.89 19.8 67.6 44 7.3 45.1
21:25 1013 29.91 843 24.89 19.5 67.2 47 8.2 46.7
21:30 1013 29.91 843 24.89 19.6 67.2 46 7.8 46
21:35 1013 29.91 842 24.86 19.6 67.2 48 8.4 47.1
21:40 1013 29.91 842 24.86 19.3 66.8 48 8.1 46.6
21:45 1013 29.91 843 24.89 19.1 66.4 48 7.9 46.2
21:50 1013 29.91 843 24.89 18.9 66 50 8.3 46.9
21:55 1013 29.91 842 24.86 18.7 65.7 53 8.9 48.1
22:00 1013 29.91 843 24.89 18.4 65.2 52 8.5 47.3
22:05 1013 29.91 843 24.89 18.1 64.6 52 8.1 46.6
22:10 1014 29.94 843 24.89 18 64.4 53 8.3 46.9
22:15 1014 29.94 843 24.89 17.8 64 50 7.3 45.2
22:20 1015 29.97 844 24.92 17.6 63.8 49 6.8 44.3
22:25 1015 29.97 844 24.92 17.8 64.1 49 7.1 44.8
22:30 1015 29.97 844 24.92 17.9 64.3 48 6.8 44.2
22:35 1015 29.97 844 24.92 18.4 65.2 46 6.8 44.2
22:40 1015 29.97 845 24.95 18.5 65.3 47 7 44.7
22:45 1016 30 845 24.95 18.4 65.1 46 6.8 44.2
22:50 1016 30 845 24.95 18.3 65 47 6.9 44.5
22:55 1016 30 845 24.95 18.3 64.9 45 6.3 43.4
23:00 1016 30 845 24.95 18.6 65.5 44 6.1 43
23:05 1016 30 846 24.98 18.8 65.8 43 6.1 43
23:10 1016 30 846 24.98 18.8 65.8 44 6.5 43.7
23:15 1017 30.03 846 24.98 18.6 65.5 46 6.8 44.3
23:20 1017 30.03 846 24.98 18.4 65.1 47 7 44.6
23:25 1017 30.03 846 24.98 18.2 64.8 51 8.1 46.5
23:30 1017 30.03 846 24.98 17.9 64.2 54 8.5 47.2
23:35 1017 30.03 846 24.98 17.5 63.6 56 8.9 48
23:40 1016 30 846 24.98 17.2 63 59 9.2 48.5
23:45 1016 30 845 24.95 16.4 61.5 66 10.1 50.3
23:50 1016 30 845 24.95 15.6 60.1 68 9.8 49.7
23:55 1015 29.97 845 24.95 15.3 59.5 70 9.9 49.9
24:00 1015 29.97 845 24.95 15.2 59.3 68 9.3 48.7